sensor_id;sensor_type;location;lat;lon;timestamp;temperature;humidity
23729;DHT22;12045;60.214;24.724;2023-07-13T00:02:19;15.10;99.90
23729;DHT22;12045;60.214;24.724;2023-07-13T00:04:47;14.80;99.90
23729;DHT22;12045;60.214;24.724;2023-07-13T00:07:15;14.80;99.90
23729;DHT22;12045;60.214;24.724;2023-07-13T00:09:42;15.00;99.90
23729;DHT22;12045;60.214;24.724;2023-07-13T00:12:23;15.20;99.90
23729;DHT22;12045;60.214;24.724;2023-07-13T00:14:51;15.30;99.90
23729;DHT22;12045;60.214;24.724;2023-07-13T00:17:18;15.40;99.90
23729;DHT22;12045;60.214;24.724;2023-07-13T00:19:46;15.50;99.90
23729;DHT22;12045;60.214;24.724;2023-07-13T00:22:13;15.60;99.90
23729;DHT22;12045;60.214;24.724;2023-07-13T00:24:41;15.70;99.90
23729;DHT22;12045;60.214;24.724;2023-07-13T00:27:09;15.70;99.90
23729;DHT22;12045;60.214;24.724;2023-07-13T00:29:37;15.70;99.90
23729;DHT22;12045;60.214;24.724;2023-07-13T00:32:06;15.60;99.90
23729;DHT22;12045;60.214;24.724;2023-07-13T00:34:34;15.40;99.90
23729;DHT22;12045;60.214;24.724;2023-07-13T00:37:02;15.20;99.90
23729;DHT22;12045;60.214;24.724;2023-07-13T00:39:29;15.00;99.90
23729;DHT22;12045;60.214;24.724;2023-07-13T00:41:57;14.90;99.90
23729;DHT22;12045;60.214;24.724;2023-07-13T00:44:25;14.90;99.90
23729;DHT22;12045;60.214;24.724;2023-07-13T00:46:53;15.00;99.90
23729;DHT22;12045;60.214;24.724;2023-07-13T00:49:22;14.90;99.90
23729;DHT22;12045;60.214;24.724;2023-07-13T00:51:55;14.80;99.90
23729;DHT22;12045;60.214;24.724;2023-07-13T00:54:28;14.80;99.90
23729;DHT22;12045;60.214;24.724;2023-07-13T00:57:01;14.80;99.90
23729;DHT22;12045;60.214;24.724;2023-07-13T00:59:31;14.80;99.90
23729;DHT22;12045;60.214;24.724;2023-07-13T01:02:01;14.60;99.90
23729;DHT22;12045;60.214;24.724;2023-07-13T01:06:58;14.70;99.90
23729;DHT22;12045;60.214;24.724;2023-07-13T01:09:27;14.80;99.90
23729;DHT22;12045;60.214;24.724;2023-07-13T01:11:55;14.70;99.90
23729;DHT22;12045;60.214;24.724;2023-07-13T01:14:22;14.30;99.90
23729;DHT22;12045;60.214;24.724;2023-07-13T01:16:51;14.70;99.90
23729;DHT22;12045;60.214;24.724;2023-07-13T01:21:53;14.70;99.90
23729;DHT22;12045;60.214;24.724;2023-07-13T01:24:22;14.60;99.90
23729;DHT22;12045;60.214;24.724;2023-07-13T01:26:50;14.80;99.90
23729;DHT22;12045;60.214;24.724;2023-07-13T01:29:37;14.70;99.90
23729;DHT22;12045;60.214;24.724;2023-07-13T01:32:21;14.60;99.90
23729;DHT22;12045;60.214;24.724;2023-07-13T01:34:52;14.30;99.90
23729;DHT22;12045;60.214;24.724;2023-07-13T01:37:25;14.30;99.90
23729;DHT22;12045;60.214;24.724;2023-07-13T01:39:53;14.40;99.90
23729;DHT22;12045;60.214;24.724;2023-07-13T01:42:21;14.60;99.90
23729;DHT22;12045;60.214;24.724;2023-07-13T01:44:48;14.70;99.90
23729;DHT22;12045;60.214;24.724;2023-07-13T01:47:16;14.80;99.90
23729;DHT22;12045;60.214;24.724;2023-07-13T01:49:45;14.80;99.90
23729;DHT22;12045;60.214;24.724;2023-07-13T01:52:14;15.00;99.90
23729;DHT22;12045;60.214;24.724;2023-07-13T01:54:42;14.90;99.90
23729;DHT22;12045;60.214;24.724;2023-07-13T01:57:09;14.90;99.90
23729;DHT22;12045;60.214;24.724;2023-07-13T01:59:37;14.80;99.90
23729;DHT22;12045;60.214;24.724;2023-07-13T02:02:04;14.90;99.90
23729;DHT22;12045;60.214;24.724;2023-07-13T02:04:33;14.80;99.90
23729;DHT22;12045;60.214;24.724;2023-07-13T02:07:01;14.70;99.90
23729;DHT22;12045;60.214;24.724;2023-07-13T02:09:28;14.50;99.90
23729;DHT22;12045;60.214;24.724;2023-07-13T02:11:56;14.70;99.90
23729;DHT22;12045;60.214;24.724;2023-07-13T02:14:23;14.80;99.90
23729;DHT22;12045;60.214;24.724;2023-07-13T02:16:51;14.90;99.90
23729;DHT22;12045;60.214;24.724;2023-07-13T02:19:19;14.90;99.90
23729;DHT22;12045;60.214;24.724;2023-07-13T02:21:47;14.90;99.90
23729;DHT22;12045;60.214;24.724;2023-07-13T02:24:14;14.80;99.90
23729;DHT22;12045;60.214;24.724;2023-07-13T02:26:45;14.70;99.90
23729;DHT22;12045;60.214;24.724;2023-07-13T02:29:12;14.80;99.90
23729;DHT22;12045;60.214;24.724;2023-07-13T02:34:08;15.00;99.90
23729;DHT22;12045;60.214;24.724;2023-07-13T02:36:36;15.00;99.90
23729;DHT22;12045;60.214;24.724;2023-07-13T02:39:05;14.80;99.90
23729;DHT22;12045;60.214;24.724;2023-07-13T02:44:01;14.80;99.90
23729;DHT22;12045;60.214;24.724;2023-07-13T02:46:36;14.60;99.90
23729;DHT22;12045;60.214;24.724;2023-07-13T02:49:05;15.00;99.90
23729;DHT22;12045;60.214;24.724;2023-07-13T02:51:33;14.60;99.90
23729;DHT22;12045;60.214;24.724;2023-07-13T02:54:04;14.80;99.90
23729;DHT22;12045;60.214;24.724;2023-07-13T02:56:32;14.80;99.90
23729;DHT22;12045;60.214;24.724;2023-07-13T02:59:00;14.90;99.90
23729;DHT22;12045;60.214;24.724;2023-07-13T03:01:28;14.90;99.90
23729;DHT22;12045;60.214;24.724;2023-07-13T03:03:56;15.00;99.90
23729;DHT22;12045;60.214;24.724;2023-07-13T03:06:23;15.40;99.90
23729;DHT22;12045;60.214;24.724;2023-07-13T03:08:52;15.10;99.90
23729;DHT22;12045;60.214;24.724;2023-07-13T03:11:20;15.00;99.90
23729;DHT22;12045;60.214;24.724;2023-07-13T03:13:48;15.00;99.90
23729;DHT22;12045;60.214;24.724;2023-07-13T03:16:16;15.00;99.90
23729;DHT22;12045;60.214;24.724;2023-07-13T03:18:46;15.00;99.90
23729;DHT22;12045;60.214;24.724;2023-07-13T03:21:15;15.10;99.90
23729;DHT22;12045;60.214;24.724;2023-07-13T03:23:42;15.20;99.90
23729;DHT22;12045;60.214;24.724;2023-07-13T03:26:14;15.30;99.90
23729;DHT22;12045;60.214;24.724;2023-07-13T03:28:42;15.50;99.90
23729;DHT22;12045;60.214;24.724;2023-07-13T03:31:13;15.80;99.90
23729;DHT22;12045;60.214;24.724;2023-07-13T03:33:42;16.10;99.90
23729;DHT22;12045;60.214;24.724;2023-07-13T03:36:13;16.20;99.90
23729;DHT22;12045;60.214;24.724;2023-07-13T03:38:41;16.80;99.90
23729;DHT22;12045;60.214;24.724;2023-07-13T03:41:08;16.40;99.90
23729;DHT22;12045;60.214;24.724;2023-07-13T03:43:36;16.60;99.90
23729;DHT22;12045;60.214;24.724;2023-07-13T03:46:03;16.80;99.90
23729;DHT22;12045;60.214;24.724;2023-07-13T03:48:31;16.90;99.90
23729;DHT22;12045;60.214;24.724;2023-07-13T03:50:58;17.00;99.90
23729;DHT22;12045;60.214;24.724;2023-07-13T03:53:26;17.00;99.90
23729;DHT22;12045;60.214;24.724;2023-07-13T03:55:53;17.10;99.90
23729;DHT22;12045;60.214;24.724;2023-07-13T03:58:33;17.30;99.90
23729;DHT22;12045;60.214;24.724;2023-07-13T04:01:04;17.40;99.90
23729;DHT22;12045;60.214;24.724;2023-07-13T04:03:33;17.60;99.90
23729;DHT22;12045;60.214;24.724;2023-07-13T04:06:02;17.80;99.90
23729;DHT22;12045;60.214;24.724;2023-07-13T04:08:34;17.90;99.90
23729;DHT22;12045;60.214;24.724;2023-07-13T04:11:03;18.00;99.90
23729;DHT22;12045;60.214;24.724;2023-07-13T04:13:31;18.10;99.90
23729;DHT22;12045;60.214;24.724;2023-07-13T04:16:00;18.20;99.90
23729;DHT22;12045;60.214;24.724;2023-07-13T04:18:28;18.40;99.90
23729;DHT22;12045;60.214;24.724;2023-07-13T04:20:55;18.60;99.90
23729;DHT22;12045;60.214;24.724;2023-07-13T04:23:23;18.70;99.90
23729;DHT22;12045;60.214;24.724;2023-07-13T04:25:52;18.90;99.90
23729;DHT22;12045;60.214;24.724;2023-07-13T04:28:24;18.90;99.90
23729;DHT22;12045;60.214;24.724;2023-07-13T04:30:52;19.00;99.90
23729;DHT22;12045;60.214;24.724;2023-07-13T04:33:20;19.10;99.90
23729;DHT22;12045;60.214;24.724;2023-07-13T04:35:53;19.20;99.90
23729;DHT22;12045;60.214;24.724;2023-07-13T04:38:27;19.40;99.90
23729;DHT22;12045;60.214;24.724;2023-07-13T04:40:56;19.50;99.90
23729;DHT22;12045;60.214;24.724;2023-07-13T04:43:25;19.60;99.90
23729;DHT22;12045;60.214;24.724;2023-07-13T04:45:53;19.80;99.90
23729;DHT22;12045;60.214;24.724;2023-07-13T04:48:21;20.10;99.90
23729;DHT22;12045;60.214;24.724;2023-07-13T04:50:55;20.30;99.90
23729;DHT22;12045;60.214;24.724;2023-07-13T04:53:23;20.40;99.90
23729;DHT22;12045;60.214;24.724;2023-07-13T04:55:51;20.50;99.90
23729;DHT22;12045;60.214;24.724;2023-07-13T04:58:19;20.50;99.90
23729;DHT22;12045;60.214;24.724;2023-07-13T05:00:46;20.70;99.90
23729;DHT22;12045;60.214;24.724;2023-07-13T05:03:13;20.80;99.90
23729;DHT22;12045;60.214;24.724;2023-07-13T05:05:41;21.10;99.90
23729;DHT22;12045;60.214;24.724;2023-07-13T05:08:08;21.30;99.90
23729;DHT22;12045;60.214;24.724;2023-07-13T05:10:36;21.50;99.90
23729;DHT22;12045;60.214;24.724;2023-07-13T05:13:03;21.50;99.90
23729;DHT22;12045;60.214;24.724;2023-07-13T05:15:33;21.60;99.90
23729;DHT22;12045;60.214;24.724;2023-07-13T05:18:01;21.70;99.90
23729;DHT22;12045;60.214;24.724;2023-07-13T05:20:29;21.70;99.90
23729;DHT22;12045;60.214;24.724;2023-07-13T05:22:57;21.70;99.90
23729;DHT22;12045;60.214;24.724;2023-07-13T05:25:25;21.70;99.90
23729;DHT22;12045;60.214;24.724;2023-07-13T05:27:52;22.00;99.90
23729;DHT22;12045;60.214;24.724;2023-07-13T05:30:20;21.90;99.90
23729;DHT22;12045;60.214;24.724;2023-07-13T05:32:48;22.00;99.90
23729;DHT22;12045;60.214;24.724;2023-07-13T05:35:15;22.20;99.90
23729;DHT22;12045;60.214;24.724;2023-07-13T05:37:43;22.20;98.30
23729;DHT22;12045;60.214;24.724;2023-07-13T05:40:11;22.00;97.40
23729;DHT22;12045;60.214;24.724;2023-07-13T05:42:38;22.00;97.50
23729;DHT22;12045;60.214;24.724;2023-07-13T05:45:06;22.00;97.90
23729;DHT22;12045;60.214;24.724;2023-07-13T05:47:34;22.10;97.80
23729;DHT22;12045;60.214;24.724;2023-07-13T05:50:02;22.10;97.40
23729;DHT22;12045;60.214;24.724;2023-07-13T05:52:32;22.20;96.90
23729;DHT22;12045;60.214;24.724;2023-07-13T05:55:00;22.20;97.60
23729;DHT22;12045;60.214;24.724;2023-07-13T05:57:27;22.30;97.30
23729;DHT22;12045;60.214;24.724;2023-07-13T05:59:55;22.30;97.10
23729;DHT22;12045;60.214;24.724;2023-07-13T06:02:23;22.30;97.00
23729;DHT22;12045;60.214;24.724;2023-07-13T06:04:50;22.40;97.20
23729;DHT22;12045;60.214;24.724;2023-07-13T06:07:19;22.30;97.10
23729;DHT22;12045;60.214;24.724;2023-07-13T06:09:47;22.50;97.50
23729;DHT22;12045;60.214;24.724;2023-07-13T06:12:16;22.50;96.50
23729;DHT22;12045;60.214;24.724;2023-07-13T06:14:43;22.40;95.70
23729;DHT22;12045;60.214;24.724;2023-07-13T06:17:11;22.40;96.30
23729;DHT22;12045;60.214;24.724;2023-07-13T06:19:40;22.40;95.90
23729;DHT22;12045;60.214;24.724;2023-07-13T06:22:07;22.40;95.60
23729;DHT22;12045;60.214;24.724;2023-07-13T06:24:36;22.50;94.50
23729;DHT22;12045;60.214;24.724;2023-07-13T06:27:03;22.60;94.40
23729;DHT22;12045;60.214;24.724;2023-07-13T06:29:31;22.60;94.30
23729;DHT22;12045;60.214;24.724;2023-07-13T06:31:59;22.70;93.60
23729;DHT22;12045;60.214;24.724;2023-07-13T06:34:27;22.70;92.20
23729;DHT22;12045;60.214;24.724;2023-07-13T06:36:54;22.80;91.50
23729;DHT22;12045;60.214;24.724;2023-07-13T06:39:21;22.90;91.00
23729;DHT22;12045;60.214;24.724;2023-07-13T06:41:49;23.00;91.50
23729;DHT22;12045;60.214;24.724;2023-07-13T06:44:17;23.10;90.50
23729;DHT22;12045;60.214;24.724;2023-07-13T06:46:46;23.10;90.60
23729;DHT22;12045;60.214;24.724;2023-07-13T06:49:14;23.20;90.10
23729;DHT22;12045;60.214;24.724;2023-07-13T06:51:41;23.30;89.30
23729;DHT22;12045;60.214;24.724;2023-07-13T06:54:13;23.40;91.70
23729;DHT22;12045;60.214;24.724;2023-07-13T06:56:43;23.40;92.80
23729;DHT22;12045;60.214;24.724;2023-07-13T06:59:11;23.40;93.50
23729;DHT22;12045;60.214;24.724;2023-07-13T07:01:38;23.40;91.60
23729;DHT22;12045;60.214;24.724;2023-07-13T07:04:08;23.40;91.00
23729;DHT22;12045;60.214;24.724;2023-07-13T07:06:36;23.40;89.10
23729;DHT22;12045;60.214;24.724;2023-07-13T07:09:03;23.10;88.50
23729;DHT22;12045;60.214;24.724;2023-07-13T07:11:31;23.50;88.10
23729;DHT22;12045;60.214;24.724;2023-07-13T07:13:58;23.60;86.40
23729;DHT22;12045;60.214;24.724;2023-07-13T07:16:27;23.70;85.50
23729;DHT22;12045;60.214;24.724;2023-07-13T07:18:55;23.70;85.30
23729;DHT22;12045;60.214;24.724;2023-07-13T07:21:23;23.70;85.00
23729;DHT22;12045;60.214;24.724;2023-07-13T07:23:53;23.60;84.90
23729;DHT22;12045;60.214;24.724;2023-07-13T07:26:21;23.60;85.80
23729;DHT22;12045;60.214;24.724;2023-07-13T07:28:54;23.70;85.10
23729;DHT22;12045;60.214;24.724;2023-07-13T07:31:41;23.70;84.60
23729;DHT22;12045;60.214;24.724;2023-07-13T07:34:13;23.80;85.20
23729;DHT22;12045;60.214;24.724;2023-07-13T07:36:41;23.90;84.90
23729;DHT22;12045;60.214;24.724;2023-07-13T07:39:13;23.90;85.90
23729;DHT22;12045;60.214;24.724;2023-07-13T07:41:41;24.00;86.60
23729;DHT22;12045;60.214;24.724;2023-07-13T07:44:22;24.10;86.40
23729;DHT22;12045;60.214;24.724;2023-07-13T07:46:50;24.30;85.80
23729;DHT22;12045;60.214;24.724;2023-07-13T07:49:17;24.40;84.50
23729;DHT22;12045;60.214;24.724;2023-07-13T07:51:45;24.40;84.90
23729;DHT22;12045;60.214;24.724;2023-07-13T07:54:13;24.50;85.90
23729;DHT22;12045;60.214;24.724;2023-07-13T07:56:57;24.70;85.40
23729;DHT22;12045;60.214;24.724;2023-07-13T07:59:27;24.80;85.50
23729;DHT22;12045;60.214;24.724;2023-07-13T08:02:15;24.70;84.20
23729;DHT22;12045;60.214;24.724;2023-07-13T08:05:03;24.50;84.80
23729;DHT22;12045;60.214;24.724;2023-07-13T08:07:34;24.50;85.60
23729;DHT22;12045;60.214;24.724;2023-07-13T08:10:02;24.60;85.40
23729;DHT22;12045;60.214;24.724;2023-07-13T08:12:29;24.50;84.20
23729;DHT22;12045;60.214;24.724;2023-07-13T08:15:01;24.60;84.80
23729;DHT22;12045;60.214;24.724;2023-07-13T08:17:29;24.60;86.30
23729;DHT22;12045;60.214;24.724;2023-07-13T08:19:57;24.50;86.30
23729;DHT22;12045;60.214;24.724;2023-07-13T08:22:24;24.50;85.90
23729;DHT22;12045;60.214;24.724;2023-07-13T08:24:52;24.50;86.70
23729;DHT22;12045;60.214;24.724;2023-07-13T08:27:25;24.50;84.10
23729;DHT22;12045;60.214;24.724;2023-07-13T08:29:53;24.60;84.00
23729;DHT22;12045;60.214;24.724;2023-07-13T08:32:22;24.60;83.90
23729;DHT22;12045;60.214;24.724;2023-07-13T08:34:50;24.60;83.00
23729;DHT22;12045;60.214;24.724;2023-07-13T08:37:18;24.60;84.00
23729;DHT22;12045;60.214;24.724;2023-07-13T08:39:48;24.60;83.70
23729;DHT22;12045;60.214;24.724;2023-07-13T08:42:37;24.50;83.20
23729;DHT22;12045;60.214;24.724;2023-07-13T08:45:14;24.60;83.70
23729;DHT22;12045;60.214;24.724;2023-07-13T08:47:57;24.50;83.10
23729;DHT22;12045;60.214;24.724;2023-07-13T08:50:32;24.50;83.00
23729;DHT22;12045;60.214;24.724;2023-07-13T08:53:21;24.50;83.30
23729;DHT22;12045;60.214;24.724;2023-07-13T08:55:57;24.70;83.10
23729;DHT22;12045;60.214;24.724;2023-07-13T08:58:27;24.60;82.20
23729;DHT22;12045;60.214;24.724;2023-07-13T09:01:09;24.60;82.60
23729;DHT22;12045;60.214;24.724;2023-07-13T09:03:46;24.70;83.00
23729;DHT22;12045;60.214;24.724;2023-07-13T09:06:16;24.70;82.90
23729;DHT22;12045;60.214;24.724;2023-07-13T09:08:57;24.80;82.40
23729;DHT22;12045;60.214;24.724;2023-07-13T09:11:36;25.00;80.70
23729;DHT22;12045;60.214;24.724;2023-07-13T09:16:43;25.20;80.20
23729;DHT22;12045;60.214;24.724;2023-07-13T09:19:23;25.30;79.60
23729;DHT22;12045;60.214;24.724;2023-07-13T09:21:54;25.40;79.40
23729;DHT22;12045;60.214;24.724;2023-07-13T09:24:35;25.30;79.40
23729;DHT22;12045;60.214;24.724;2023-07-13T09:27:17;25.40;79.20
23729;DHT22;12045;60.214;24.724;2023-07-13T09:29:58;25.50;77.80
23729;DHT22;12045;60.214;24.724;2023-07-13T09:32:29;25.50;75.00
23729;DHT22;12045;60.214;24.724;2023-07-13T09:34:59;25.60;75.30
23729;DHT22;12045;60.214;24.724;2023-07-13T09:37:31;25.60;73.30
23729;DHT22;12045;60.214;24.724;2023-07-13T09:40:01;25.60;74.10
23729;DHT22;12045;60.214;24.724;2023-07-13T09:42:32;25.50;71.70
23729;DHT22;12045;60.214;24.724;2023-07-13T09:45:01;25.60;71.00
23729;DHT22;12045;60.214;24.724;2023-07-13T09:47:32;25.60;74.40
23729;DHT22;12045;60.214;24.724;2023-07-13T09:50:02;25.50;75.90
23729;DHT22;12045;60.214;24.724;2023-07-13T09:52:48;25.60;75.20
23729;DHT22;12045;60.214;24.724;2023-07-13T09:55:34;25.60;75.00
23729;DHT22;12045;60.214;24.724;2023-07-13T10:00:54;25.80;71.50
23729;DHT22;12045;60.214;24.724;2023-07-13T10:03:29;25.80;72.00
23729;DHT22;12045;60.214;24.724;2023-07-13T10:06:21;26.00;72.40
23729;DHT22;12045;60.214;24.724;2023-07-13T10:08:50;26.30;71.70
23729;DHT22;12045;60.214;24.724;2023-07-13T10:11:29;26.40;72.70
23729;DHT22;12045;60.214;24.724;2023-07-13T10:14:03;26.70;72.70
23729;DHT22;12045;60.214;24.724;2023-07-13T10:16:37;27.00;71.00
23729;DHT22;12045;60.214;24.724;2023-07-13T10:19:23;27.00;71.30
23729;DHT22;12045;60.214;24.724;2023-07-13T10:21:58;27.00;71.60
23729;DHT22;12045;60.214;24.724;2023-07-13T10:24:33;27.10;70.80
23729;DHT22;12045;60.214;24.724;2023-07-13T10:27:16;27.40;69.80
23729;DHT22;12045;60.214;24.724;2023-07-13T10:29:59;27.70;68.20
23729;DHT22;12045;60.214;24.724;2023-07-13T10:32:30;27.60;67.50
23729;DHT22;12045;60.214;24.724;2023-07-13T10:34:59;27.80;66.70
23729;DHT22;12045;60.214;24.724;2023-07-13T10:38:02;28.00;65.90
23729;DHT22;12045;60.214;24.724;2023-07-13T10:40:43;28.20;64.80
23729;DHT22;12045;60.214;24.724;2023-07-13T10:43:20;28.10;65.30
23729;DHT22;12045;60.214;24.724;2023-07-13T10:45:50;28.10;65.90
23729;DHT22;12045;60.214;24.724;2023-07-13T10:48:19;28.20;65.10
23729;DHT22;12045;60.214;24.724;2023-07-13T10:50:50;28.20;64.70
23729;DHT22;12045;60.214;24.724;2023-07-13T10:53:32;28.40;64.30
23729;DHT22;12045;60.214;24.724;2023-07-13T10:56:02;28.50;63.20
23729;DHT22;12045;60.214;24.724;2023-07-13T10:58:38;28.40;61.80
23729;DHT22;12045;60.214;24.724;2023-07-13T11:06:15;28.50;61.90
23729;DHT22;12045;60.214;24.724;2023-07-13T11:15:00;27.90;60.90
23729;DHT22;12045;60.214;24.724;2023-07-13T11:17:50;28.10;60.00
23729;DHT22;12045;60.214;24.724;2023-07-13T11:22:46;28.60;59.70
23729;DHT22;12045;60.214;24.724;2023-07-13T11:25:28;28.40;59.30
23729;DHT22;12045;60.214;24.724;2023-07-13T11:31:01;28.50;59.80
23729;DHT22;12045;60.214;24.724;2023-07-13T11:33:51;28.50;58.50
23729;DHT22;12045;60.214;24.724;2023-07-13T11:36:23;28.40;57.40
23729;DHT22;12045;60.214;24.724;2023-07-13T11:39:15;28.00;56.80
23729;DHT22;12045;60.214;24.724;2023-07-13T11:41:49;28.30;57.10
23729;DHT22;12045;60.214;24.724;2023-07-13T11:44:20;28.50;57.20
23729;DHT22;12045;60.214;24.724;2023-07-13T11:46:50;28.30;56.70
23729;DHT22;12045;60.214;24.724;2023-07-13T11:49:24;28.40;56.50
23729;DHT22;12045;60.214;24.724;2023-07-13T11:51:52;28.50;56.20
23729;DHT22;12045;60.214;24.724;2023-07-13T11:54:25;28.30;56.10
23729;DHT22;12045;60.214;24.724;2023-07-13T11:57:00;28.20;56.20
23729;DHT22;12045;60.214;24.724;2023-07-13T11:59:30;27.90;56.60
23729;DHT22;12045;60.214;24.724;2023-07-13T12:01:59;27.80;56.10
23729;DHT22;12045;60.214;24.724;2023-07-13T12:04:30;27.90;55.10
23729;DHT22;12045;60.214;24.724;2023-07-13T12:07:07;27.80;54.80
23729;DHT22;12045;60.214;24.724;2023-07-13T12:09:36;28.00;54.10
23729;DHT22;12045;60.214;24.724;2023-07-13T12:12:11;27.80;54.50
23729;DHT22;12045;60.214;24.724;2023-07-13T12:14:40;27.80;56.00
23729;DHT22;12045;60.214;24.724;2023-07-13T12:17:19;27.90;55.90
23729;DHT22;12045;60.214;24.724;2023-07-13T12:19:48;28.10;56.00
23729;DHT22;12045;60.214;24.724;2023-07-13T12:22:17;28.00;55.00
23729;DHT22;12045;60.214;24.724;2023-07-13T12:24:47;27.90;54.50
23729;DHT22;12045;60.214;24.724;2023-07-13T12:27:26;27.60;54.50
23729;DHT22;12045;60.214;24.724;2023-07-13T12:30:00;27.10;54.20
23729;DHT22;12045;60.214;24.724;2023-07-13T12:32:28;26.50;55.10
23729;DHT22;12045;60.214;24.724;2023-07-13T12:35:16;26.60;55.00
23729;DHT22;12045;60.214;24.724;2023-07-13T12:37:48;26.00;55.30
23729;DHT22;12045;60.214;24.724;2023-07-13T12:40:17;25.70;56.40
23729;DHT22;12045;60.214;24.724;2023-07-13T12:42:48;25.50;56.80
23729;DHT22;12045;60.214;24.724;2023-07-13T12:45:22;25.60;57.60
23729;DHT22;12045;60.214;24.724;2023-07-13T12:47:55;25.40;58.70
23729;DHT22;12045;60.214;24.724;2023-07-13T12:50:36;25.30;58.80
23729;DHT22;12045;60.214;24.724;2023-07-13T12:53:05;25.10;58.50
23729;DHT22;12045;60.214;24.724;2023-07-13T12:55:53;24.90;58.30
23729;DHT22;12045;60.214;24.724;2023-07-13T12:58:26;24.70;59.50
23729;DHT22;12045;60.214;24.724;2023-07-13T13:00:56;24.70;60.10
23729;DHT22;12045;60.214;24.724;2023-07-13T13:03:45;24.70;60.40
23729;DHT22;12045;60.214;24.724;2023-07-13T13:08:48;24.50;61.20
23729;DHT22;12045;60.214;24.724;2023-07-13T13:11:17;24.40;61.70
23729;DHT22;12045;60.214;24.724;2023-07-13T13:13:45;24.10;61.40
23729;DHT22;12045;60.214;24.724;2023-07-13T13:16:37;23.90;62.10
23729;DHT22;12045;60.214;24.724;2023-07-13T13:19:16;24.00;63.40
23729;DHT22;12045;60.214;24.724;2023-07-13T13:21:44;24.10;62.60
23729;DHT22;12045;60.214;24.724;2023-07-13T13:24:18;24.10;62.80
23729;DHT22;12045;60.214;24.724;2023-07-13T13:26:50;24.20;62.50
23729;DHT22;12045;60.214;24.724;2023-07-13T13:29:20;24.20;62.50
23729;DHT22;12045;60.214;24.724;2023-07-13T13:31:47;24.30;62.10
23729;DHT22;12045;60.214;24.724;2023-07-13T13:34:17;24.90;63.10
23729;DHT22;12045;60.214;24.724;2023-07-13T13:36:47;24.40;62.70
23729;DHT22;12045;60.214;24.724;2023-07-13T13:39:24;24.50;62.00
23729;DHT22;12045;60.214;24.724;2023-07-13T13:41:53;24.50;62.10
23729;DHT22;12045;60.214;24.724;2023-07-13T13:44:22;24.50;63.10
23729;DHT22;12045;60.214;24.724;2023-07-13T13:46:53;24.50;63.30
23729;DHT22;12045;60.214;24.724;2023-07-13T13:49:24;24.80;62.50
23729;DHT22;12045;60.214;24.724;2023-07-13T13:51:53;25.00;63.00
23729;DHT22;12045;60.214;24.724;2023-07-13T13:54:22;25.20;62.50
23729;DHT22;12045;60.214;24.724;2023-07-13T13:56:51;25.30;61.10
23729;DHT22;12045;60.214;24.724;2023-07-13T13:59:20;25.40;61.70
23729;DHT22;12045;60.214;24.724;2023-07-13T14:01:48;25.50;60.50
23729;DHT22;12045;60.214;24.724;2023-07-13T14:04:21;25.60;60.60
23729;DHT22;12045;60.214;24.724;2023-07-13T14:06:49;25.50;60.00
23729;DHT22;12045;60.214;24.724;2023-07-13T14:09:18;25.50;59.90
23729;DHT22;12045;60.214;24.724;2023-07-13T14:11:49;25.30;60.60
23729;DHT22;12045;60.214;24.724;2023-07-13T14:14:23;25.20;61.10
23729;DHT22;12045;60.214;24.724;2023-07-13T14:16:51;25.10;60.80
23729;DHT22;12045;60.214;24.724;2023-07-13T14:19:23;25.10;60.80
23729;DHT22;12045;60.214;24.724;2023-07-13T14:21:51;25.00;60.90
23729;DHT22;12045;60.214;24.724;2023-07-13T14:24:21;25.00;61.40
23729;DHT22;12045;60.214;24.724;2023-07-13T14:26:50;25.00;61.10
23729;DHT22;12045;60.214;24.724;2023-07-13T14:29:19;24.80;61.40
23729;DHT22;12045;60.214;24.724;2023-07-13T14:31:51;24.50;62.00
23729;DHT22;12045;60.214;24.724;2023-07-13T14:34:18;24.40;61.50
23729;DHT22;12045;60.214;24.724;2023-07-13T14:36:49;24.40;60.70
23729;DHT22;12045;60.214;24.724;2023-07-13T14:39:22;24.50;61.70
23729;DHT22;12045;60.214;24.724;2023-07-13T14:41:53;24.60;62.00
23729;DHT22;12045;60.214;24.724;2023-07-13T14:44:34;24.80;62.10
23729;DHT22;12045;60.214;24.724;2023-07-13T14:47:04;24.80;62.50
23729;DHT22;12045;60.214;24.724;2023-07-13T14:49:38;24.80;62.10
23729;DHT22;12045;60.214;24.724;2023-07-13T14:52:17;24.70;62.40
23729;DHT22;12045;60.214;24.724;2023-07-13T14:54:45;24.60;62.70
23729;DHT22;12045;60.214;24.724;2023-07-13T14:57:15;24.50;62.40
23729;DHT22;12045;60.214;24.724;2023-07-13T14:59:43;24.40;61.60
23729;DHT22;12045;60.214;24.724;2023-07-13T15:02:31;24.20;61.90
23729;DHT22;12045;60.214;24.724;2023-07-13T15:05:12;24.10;62.50
23729;DHT22;12045;60.214;24.724;2023-07-13T15:07:54;24.00;63.60
23729;DHT22;12045;60.214;24.724;2023-07-13T15:13:01;23.60;65.50
23729;DHT22;12045;60.214;24.724;2023-07-13T15:15:32;23.50;66.60
23729;DHT22;12045;60.214;24.724;2023-07-13T15:18:01;23.40;68.00
23729;DHT22;12045;60.214;24.724;2023-07-13T15:20:32;23.30;69.00
23729;DHT22;12045;60.214;24.724;2023-07-13T15:23:01;23.20;70.00
23729;DHT22;12045;60.214;24.724;2023-07-13T15:25:31;23.10;71.30
23729;DHT22;12045;60.214;24.724;2023-07-13T15:28:00;23.10;72.60
23729;DHT22;12045;60.214;24.724;2023-07-13T15:30:31;23.00;74.70
23729;DHT22;12045;60.214;24.724;2023-07-13T15:35:41;22.90;76.30
23729;DHT22;12045;60.214;24.724;2023-07-13T15:38:19;22.90;77.50
23729;DHT22;12045;60.214;24.724;2023-07-13T15:40:49;22.90;78.70
23729;DHT22;12045;60.214;24.724;2023-07-13T15:43:18;22.80;80.20
23729;DHT22;12045;60.214;24.724;2023-07-13T15:45:47;22.80;81.20
23729;DHT22;12045;60.214;24.724;2023-07-13T15:50:51;22.90;83.20
23729;DHT22;12045;60.214;24.724;2023-07-13T15:53:27;22.80;83.90
23729;DHT22;12045;60.214;24.724;2023-07-13T15:55:58;22.30;85.90
23729;DHT22;12045;60.214;24.724;2023-07-13T15:58:26;22.10;87.70
23729;DHT22;12045;60.214;24.724;2023-07-13T16:00:56;22.00;88.10
23729;DHT22;12045;60.214;24.724;2023-07-13T16:03:28;22.00;88.00
23729;DHT22;12045;60.214;24.724;2023-07-13T16:05:56;21.90;88.50
23729;DHT22;12045;60.214;24.724;2023-07-13T16:08:30;21.80;90.00
23729;DHT22;12045;60.214;24.724;2023-07-13T16:10:59;21.60;91.10
23729;DHT22;12045;60.214;24.724;2023-07-13T16:13:27;21.50;91.90
23729;DHT22;12045;60.214;24.724;2023-07-13T16:15:56;21.50;92.20
23729;DHT22;12045;60.214;24.724;2023-07-13T16:18:26;21.50;92.70
23729;DHT22;12045;60.214;24.724;2023-07-13T16:20:55;21.40;93.20
23729;DHT22;12045;60.214;24.724;2023-07-13T16:23:26;21.40;93.80